sensor_id;sensor_type;location;lat;lon;timestamp;P1;durP1;ratioP1;P2;durP2;ratioP2
5900;SDS011;2976;49.764;9.796;2024-03-02T00:00:44;38.17;;;16.13;;
5900;SDS011;2976;49.764;9.796;2024-03-02T00:03:13;36.97;;;17.50;;
5900;SDS011;2976;49.764;9.796;2024-03-02T00:05:39;35.13;;;15.93;;
5900;SDS011;2976;49.764;9.796;2024-03-02T00:08:05;35.87;;;15.40;;
5900;SDS011;2976;49.764;9.796;2024-03-02T00:10:38;43.90;;;17.00;;
5900;SDS011;2976;49.764;9.796;2024-03-02T00:13:07;33.17;;;14.20;;
5900;SDS011;2976;49.764;9.796;2024-03-02T00:18:05;36.43;;;15.33;;
5900;SDS011;2976;49.764;9.796;2024-03-02T00:20:31;39.47;;;14.30;;
5900;SDS011;2976;49.764;9.796;2024-03-02T00:22:58;38.47;;;16.43;;
5900;SDS011;2976;49.764;9.796;2024-03-02T00:25:38;36.97;;;17.27;;
5900;SDS011;2976;49.764;9.796;2024-03-02T00:28:13;42.20;;;15.20;;
5900;SDS011;2976;49.764;9.796;2024-03-02T00:33:28;40.77;;;15.80;;
5900;SDS011;2976;49.764;9.796;2024-03-02T00:35:57;35.43;;;15.30;;
5900;SDS011;2976;49.764;9.796;2024-03-02T00:38:22;41.83;;;17.27;;
5900;SDS011;2976;49.764;9.796;2024-03-02T00:40:49;34.53;;;16.17;;
5900;SDS011;2976;49.764;9.796;2024-03-02T00:45:52;37.30;;;16.43;;
5900;SDS011;2976;49.764;9.796;2024-03-02T00:48:18;38.07;;;17.07;;
5900;SDS011;2976;49.764;9.796;2024-03-02T00:50:44;36.03;;;17.00;;
5900;SDS011;2976;49.764;9.796;2024-03-02T00:53:10;36.50;;;16.87;;
5900;SDS011;2976;49.764;9.796;2024-03-02T00:55:36;37.40;;;16.30;;
5900;SDS011;2976;49.764;9.796;2024-03-02T00:58:03;38.43;;;17.43;;
5900;SDS011;2976;49.764;9.796;2024-03-02T01:00:28;39.10;;;16.80;;
5900;SDS011;2976;49.764;9.796;2024-03-02T01:02:54;35.07;;;15.53;;
5900;SDS011;2976;49.764;9.796;2024-03-02T01:05:19;39.03;;;16.40;;
5900;SDS011;2976;49.764;9.796;2024-03-02T01:07:45;41.40;;;17.13;;
5900;SDS011;2976;49.764;9.796;2024-03-02T01:10:11;33.40;;;16.70;;
5900;SDS011;2976;49.764;9.796;2024-03-02T01:12:36;37.53;;;14.90;;
5900;SDS011;2976;49.764;9.796;2024-03-02T01:15:02;31.07;;;14.47;;
5900;SDS011;2976;49.764;9.796;2024-03-02T01:17:30;34.07;;;15.70;;
5900;SDS011;2976;49.764;9.796;2024-03-02T01:19:56;34.87;;;15.90;;
5900;SDS011;2976;49.764;9.796;2024-03-02T01:22:22;30.97;;;14.10;;
5900;SDS011;2976;49.764;9.796;2024-03-02T01:24:50;32.33;;;14.70;;
5900;SDS011;2976;49.764;9.796;2024-03-02T01:27:16;27.93;;;14.90;;
5900;SDS011;2976;49.764;9.796;2024-03-02T01:29:42;34.67;;;15.10;;
5900;SDS011;2976;49.764;9.796;2024-03-02T01:32:07;32.07;;;15.03;;
5900;SDS011;2976;49.764;9.796;2024-03-02T01:34:33;32.97;;;16.40;;
5900;SDS011;2976;49.764;9.796;2024-03-02T01:36:58;32.20;;;15.83;;
5900;SDS011;2976;49.764;9.796;2024-03-02T01:39:24;41.33;;;16.50;;
5900;SDS011;2976;49.764;9.796;2024-03-02T01:41:49;34.57;;;15.97;;
5900;SDS011;2976;49.764;9.796;2024-03-02T01:44:15;32.40;;;17.00;;
5900;SDS011;2976;49.764;9.796;2024-03-02T01:46:41;38.00;;;16.07;;
5900;SDS011;2976;49.764;9.796;2024-03-02T01:49:06;39.13;;;18.50;;
5900;SDS011;2976;49.764;9.796;2024-03-02T01:51:32;36.57;;;16.70;;
5900;SDS011;2976;49.764;9.796;2024-03-02T01:53:58;38.93;;;16.60;;
5900;SDS011;2976;49.764;9.796;2024-03-02T01:56:23;44.80;;;17.50;;
5900;SDS011;2976;49.764;9.796;2024-03-02T01:58:49;36.33;;;15.10;;
5900;SDS011;2976;49.764;9.796;2024-03-02T02:01:14;45.20;;;18.97;;
5900;SDS011;2976;49.764;9.796;2024-03-02T02:03:41;33.07;;;15.97;;
5900;SDS011;2976;49.764;9.796;2024-03-02T02:06:09;37.90;;;18.53;;
5900;SDS011;2976;49.764;9.796;2024-03-02T02:08:36;34.97;;;16.17;;
5900;SDS011;2976;49.764;9.796;2024-03-02T02:11:02;27.57;;;14.20;;
5900;SDS011;2976;49.764;9.796;2024-03-02T02:13:28;32.70;;;15.80;;
5900;SDS011;2976;49.764;9.796;2024-03-02T02:15:53;37.30;;;14.67;;
5900;SDS011;2976;49.764;9.796;2024-03-02T02:18:19;39.73;;;17.77;;
5900;SDS011;2976;49.764;9.796;2024-03-02T02:20:44;33.30;;;15.37;;
5900;SDS011;2976;49.764;9.796;2024-03-02T02:23:10;34.70;;;14.90;;
5900;SDS011;2976;49.764;9.796;2024-03-02T02:25:35;32.23;;;14.73;;
5900;SDS011;2976;49.764;9.796;2024-03-02T02:28:01;35.07;;;16.57;;
5900;SDS011;2976;49.764;9.796;2024-03-02T02:30:29;34.30;;;14.50;;
5900;SDS011;2976;49.764;9.796;2024-03-02T02:32:56;38.00;;;15.80;;
5900;SDS011;2976;49.764;9.796;2024-03-02T02:35:22;25.93;;;13.50;;
5900;SDS011;2976;49.764;9.796;2024-03-02T02:37:51;31.73;;;14.53;;
5900;SDS011;2976;49.764;9.796;2024-03-02T02:40:18;32.43;;;15.00;;
5900;SDS011;2976;49.764;9.796;2024-03-02T02:42:44;31.33;;;13.70;;
5900;SDS011;2976;49.764;9.796;2024-03-02T02:45:13;42.57;;;15.50;;
5900;SDS011;2976;49.764;9.796;2024-03-02T02:47:41;31.23;;;15.10;;
5900;SDS011;2976;49.764;9.796;2024-03-02T02:50:07;40.30;;;16.40;;
5900;SDS011;2976;49.764;9.796;2024-03-02T02:52:34;32.50;;;14.43;;
5900;SDS011;2976;49.764;9.796;2024-03-02T02:55:02;38.00;;;17.00;;
5900;SDS011;2976;49.764;9.796;2024-03-02T02:57:28;35.77;;;14.27;;
5900;SDS011;2976;49.764;9.796;2024-03-02T02:59:56;38.20;;;15.23;;
5900;SDS011;2976;49.764;9.796;2024-03-02T03:02:22;38.67;;;17.20;;
5900;SDS011;2976;49.764;9.796;2024-03-02T03:04:47;40.47;;;15.20;;
5900;SDS011;2976;49.764;9.796;2024-03-02T03:07:13;28.67;;;14.90;;
5900;SDS011;2976;49.764;9.796;2024-03-02T03:09:38;37.10;;;14.83;;
5900;SDS011;2976;49.764;9.796;2024-03-02T03:12:04;37.77;;;15.97;;
5900;SDS011;2976;49.764;9.796;2024-03-02T03:14:30;36.60;;;16.63;;
5900;SDS011;2976;49.764;9.796;2024-03-02T03:16:55;31.20;;;15.03;;
5900;SDS011;2976;49.764;9.796;2024-03-02T03:19:21;46.03;;;16.53;;
5900;SDS011;2976;49.764;9.796;2024-03-02T03:21:46;39.03;;;16.30;;
5900;SDS011;2976;49.764;9.796;2024-03-02T03:24:12;35.80;;;16.17;;
5900;SDS011;2976;49.764;9.796;2024-03-02T03:26:37;36.93;;;15.70;;
5900;SDS011;2976;49.764;9.796;2024-03-02T03:29:03;34.73;;;15.40;;
5900;SDS011;2976;49.764;9.796;2024-03-02T03:31:29;40.13;;;15.50;;
5900;SDS011;2976;49.764;9.796;2024-03-02T03:33:54;38.30;;;15.60;;
5900;SDS011;2976;49.764;9.796;2024-03-02T03:36:20;38.27;;;17.93;;
5900;SDS011;2976;49.764;9.796;2024-03-02T03:38:45;43.23;;;17.63;;
5900;SDS011;2976;49.764;9.796;2024-03-02T03:41:11;34.37;;;15.17;;
5900;SDS011;2976;49.764;9.796;2024-03-02T03:43:36;38.80;;;17.70;;
5900;SDS011;2976;49.764;9.796;2024-03-02T03:46:02;39.60;;;16.37;;
5900;SDS011;2976;49.764;9.796;2024-03-02T03:48:28;38.90;;;18.50;;
5900;SDS011;2976;49.764;9.796;2024-03-02T03:50:55;33.77;;;15.63;;
5900;SDS011;2976;49.764;9.796;2024-03-02T03:53:21;43.63;;;17.43;;
5900;SDS011;2976;49.764;9.796;2024-03-02T03:55:47;34.13;;;16.17;;
5900;SDS011;2976;49.764;9.796;2024-03-02T03:58:14;50.77;;;17.50;;
5900;SDS011;2976;49.764;9.796;2024-03-02T04:00:41;43.20;;;17.20;;
5900;SDS011;2976;49.764;9.796;2024-03-02T04:03:07;37.17;;;15.27;;
5900;SDS011;2976;49.764;9.796;2024-03-02T04:05:32;38.97;;;17.93;;
5900;SDS011;2976;49.764;9.796;2024-03-02T04:07:58;33.60;;;15.57;;
5900;SDS011;2976;49.764;9.796;2024-03-02T04:10:26;38.43;;;16.47;;
5900;SDS011;2976;49.764;9.796;2024-03-02T04:12:51;32.63;;;14.67;;
5900;SDS011;2976;49.764;9.796;2024-03-02T04:15:17;41.30;;;16.90;;
5900;SDS011;2976;49.764;9.796;2024-03-02T04:17:43;40.27;;;17.10;;
5900;SDS011;2976;49.764;9.796;2024-03-02T04:20:09;41.00;;;17.90;;
5900;SDS011;2976;49.764;9.796;2024-03-02T04:22:38;37.87;;;16.70;;
5900;SDS011;2976;49.764;9.796;2024-03-02T04:25:03;40.03;;;17.73;;
5900;SDS011;2976;49.764;9.796;2024-03-02T04:27:32;42.70;;;18.37;;
5900;SDS011;2976;49.764;9.796;2024-03-02T04:29:58;32.90;;;15.77;;
5900;SDS011;2976;49.764;9.796;2024-03-02T04:32:25;39.33;;;16.97;;
5900;SDS011;2976;49.764;9.796;2024-03-02T04:34:51;41.57;;;16.77;;
5900;SDS011;2976;49.764;9.796;2024-03-02T04:37:17;38.97;;;16.87;;
5900;SDS011;2976;49.764;9.796;2024-03-02T04:39:42;42.90;;;17.40;;
5900;SDS011;2976;49.764;9.796;2024-03-02T04:42:08;38.57;;;16.60;;
5900;SDS011;2976;49.764;9.796;2024-03-02T04:44:33;42.87;;;17.13;;
5900;SDS011;2976;49.764;9.796;2024-03-02T04:46:59;37.67;;;14.93;;
5900;SDS011;2976;49.764;9.796;2024-03-02T04:49:25;43.80;;;16.87;;
5900;SDS011;2976;49.764;9.796;2024-03-02T04:51:50;44.53;;;16.70;;
5900;SDS011;2976;49.764;9.796;2024-03-02T04:54:16;38.07;;;15.67;;
5900;SDS011;2976;49.764;9.796;2024-03-02T04:56:42;44.30;;;17.73;;
5900;SDS011;2976;49.764;9.796;2024-03-02T04:59:14;37.70;;;16.43;;
5900;SDS011;2976;49.764;9.796;2024-03-02T05:01:41;41.07;;;16.90;;
5900;SDS011;2976;49.764;9.796;2024-03-02T05:04:06;47.73;;;15.33;;
5900;SDS011;2976;49.764;9.796;2024-03-02T05:06:32;37.83;;;16.60;;
5900;SDS011;2976;49.764;9.796;2024-03-02T05:08:58;41.77;;;17.60;;
5900;SDS011;2976;49.764;9.796;2024-03-02T05:11:23;40.00;;;15.70;;
5900;SDS011;2976;49.764;9.796;2024-03-02T05:14:04;44.50;;;15.20;;
5900;SDS011;2976;49.764;9.796;2024-03-02T05:16:34;37.67;;;16.50;;
5900;SDS011;2976;49.764;9.796;2024-03-02T05:19:01;41.90;;;16.10;;
5900;SDS011;2976;49.764;9.796;2024-03-02T05:21:27;42.57;;;15.87;;
5900;SDS011;2976;49.764;9.796;2024-03-02T05:23:52;40.47;;;16.50;;
5900;SDS011;2976;49.764;9.796;2024-03-02T05:26:18;47.93;;;17.10;;
5900;SDS011;2976;49.764;9.796;2024-03-02T05:28:43;43.73;;;17.77;;
5900;SDS011;2976;49.764;9.796;2024-03-02T05:31:14;37.57;;;16.10;;
5900;SDS011;2976;49.764;9.796;2024-03-02T05:33:41;44.57;;;15.83;;
5900;SDS011;2976;49.764;9.796;2024-03-02T05:36:07;47.70;;;17.63;;
5900;SDS011;2976;49.764;9.796;2024-03-02T05:38:36;41.87;;;17.13;;
5900;SDS011;2976;49.764;9.796;2024-03-02T05:41:02;44.77;;;18.37;;
5900;SDS011;2976;49.764;9.796;2024-03-02T05:43:28;50.30;;;19.17;;
5900;SDS011;2976;49.764;9.796;2024-03-02T05:45:53;52.27;;;16.80;;
5900;SDS011;2976;49.764;9.796;2024-03-02T05:48:19;45.33;;;19.10;;
5900;SDS011;2976;49.764;9.796;2024-03-02T05:50:45;50.30;;;18.73;;
5900;SDS011;2976;49.764;9.796;2024-03-02T05:53:10;51.03;;;19.70;;
5900;SDS011;2976;49.764;9.796;2024-03-02T05:55:36;40.83;;;15.83;;
5900;SDS011;2976;49.764;9.796;2024-03-02T05:58:01;45.90;;;17.80;;
5900;SDS011;2976;49.764;9.796;2024-03-02T06:00:45;47.27;;;19.40;;
5900;SDS011;2976;49.764;9.796;2024-03-02T06:03:11;51.93;;;16.70;;
5900;SDS011;2976;49.764;9.796;2024-03-02T06:05:39;47.50;;;19.73;;
5900;SDS011;2976;49.764;9.796;2024-03-02T06:08:05;51.40;;;18.40;;
5900;SDS011;2976;49.764;9.796;2024-03-02T06:10:32;49.63;;;19.33;;
5900;SDS011;2976;49.764;9.796;2024-03-02T06:12:57;38.17;;;17.67;;
5900;SDS011;2976;49.764;9.796;2024-03-02T06:15:24;55.17;;;18.77;;
5900;SDS011;2976;49.764;9.796;2024-03-02T06:17:49;42.57;;;17.60;;
5900;SDS011;2976;49.764;9.796;2024-03-02T06:20:15;52.47;;;18.77;;
5900;SDS011;2976;49.764;9.796;2024-03-02T06:22:40;40.30;;;16.33;;
5900;SDS011;2976;49.764;9.796;2024-03-02T06:25:06;51.83;;;17.60;;
5900;SDS011;2976;49.764;9.796;2024-03-02T06:27:35;46.67;;;17.30;;
5900;SDS011;2976;49.764;9.796;2024-03-02T06:30:00;37.97;;;16.13;;
5900;SDS011;2976;49.764;9.796;2024-03-02T06:32:26;36.40;;;15.47;;
5900;SDS011;2976;49.764;9.796;2024-03-02T06:34:51;41.30;;;15.80;;
5900;SDS011;2976;49.764;9.796;2024-03-02T06:37:17;46.37;;;16.70;;
5900;SDS011;2976;49.764;9.796;2024-03-02T06:39:43;43.90;;;14.60;;
5900;SDS011;2976;49.764;9.796;2024-03-02T06:42:08;42.40;;;15.77;;
5900;SDS011;2976;49.764;9.796;2024-03-02T06:44:34;42.07;;;16.77;;
5900;SDS011;2976;49.764;9.796;2024-03-02T06:46:59;37.80;;;15.77;;
5900;SDS011;2976;49.764;9.796;2024-03-02T06:49:25;44.07;;;18.63;;
5900;SDS011;2976;49.764;9.796;2024-03-02T06:51:51;47.13;;;18.20;;
5900;SDS011;2976;49.764;9.796;2024-03-02T06:54:16;49.20;;;18.30;;
5900;SDS011;2976;49.764;9.796;2024-03-02T06:56:42;51.13;;;18.10;;
5900;SDS011;2976;49.764;9.796;2024-03-02T06:59:07;53.83;;;18.40;;
5900;SDS011;2976;49.764;9.796;2024-03-02T07:01:33;53.07;;;18.97;;
5900;SDS011;2976;49.764;9.796;2024-03-02T07:03:59;41.10;;;17.63;;
5900;SDS011;2976;49.764;9.796;2024-03-02T07:06:25;42.17;;;18.07;;
5900;SDS011;2976;49.764;9.796;2024-03-02T07:08:50;32.67;;;15.83;;
5900;SDS011;2976;49.764;9.796;2024-03-02T07:11:16;38.63;;;17.53;;
5900;SDS011;2976;49.764;9.796;2024-03-02T07:13:41;50.13;;;19.73;;
5900;SDS011;2976;49.764;9.796;2024-03-02T07:16:07;35.00;;;17.27;;
5900;SDS011;2976;49.764;9.796;2024-03-02T07:18:35;40.73;;;16.77;;
5900;SDS011;2976;49.764;9.796;2024-03-02T07:21:09;45.37;;;17.67;;
5900;SDS011;2976;49.764;9.796;2024-03-02T07:23:35;41.60;;;18.77;;
5900;SDS011;2976;49.764;9.796;2024-03-02T07:26:01;36.53;;;16.30;;
5900;SDS011;2976;49.764;9.796;2024-03-02T07:28:27;36.00;;;15.97;;
5900;SDS011;2976;49.764;9.796;2024-03-02T07:30:59;42.17;;;17.77;;
5900;SDS011;2976;49.764;9.796;2024-03-02T07:33:29;36.00;;;16.47;;
5900;SDS011;2976;49.764;9.796;2024-03-02T07:35:55;32.17;;;15.67;;
5900;SDS011;2976;49.764;9.796;2024-03-02T07:38:21;37.73;;;15.07;;
5900;SDS011;2976;49.764;9.796;2024-03-02T07:40:48;37.20;;;16.90;;
5900;SDS011;2976;49.764;9.796;2024-03-02T07:43:17;36.63;;;16.23;;
5900;SDS011;2976;49.764;9.796;2024-03-02T07:45:44;39.10;;;17.47;;
5900;SDS011;2976;49.764;9.796;2024-03-02T07:48:09;34.33;;;16.23;;
5900;SDS011;2976;49.764;9.796;2024-03-02T07:50:35;33.03;;;15.93;;
5900;SDS011;2976;49.764;9.796;2024-03-02T07:53:02;26.77;;;14.30;;
5900;SDS011;2976;49.764;9.796;2024-03-02T07:55:28;33.83;;;15.13;;
5900;SDS011;2976;49.764;9.796;2024-03-02T07:57:55;33.90;;;15.80;;
5900;SDS011;2976;49.764;9.796;2024-03-02T08:00:21;33.60;;;15.83;;
5900;SDS011;2976;49.764;9.796;2024-03-02T08:02:47;29.60;;;13.77;;
5900;SDS011;2976;49.764;9.796;2024-03-02T08:05:13;26.67;;;14.37;;
5900;SDS011;2976;49.764;9.796;2024-03-02T08:07:39;26.63;;;14.23;;
5900;SDS011;2976;49.764;9.796;2024-03-02T08:10:06;31.37;;;14.70;;
5900;SDS011;2976;49.764;9.796;2024-03-02T08:12:32;28.53;;;13.97;;
5900;SDS011;2976;49.764;9.796;2024-03-02T08:14:57;24.30;;;13.07;;
5900;SDS011;2976;49.764;9.796;2024-03-02T08:17:23;22.27;;;12.70;;
5900;SDS011;2976;49.764;9.796;2024-03-02T08:19:48;25.20;;;13.37;;
5900;SDS011;2976;49.764;9.796;2024-03-02T08:22:14;25.53;;;13.20;;
5900;SDS011;2976;49.764;9.796;2024-03-02T08:24:40;22.60;;;11.90;;
5900;SDS011;2976;49.764;9.796;2024-03-02T08:27:06;18.87;;;12.13;;
5900;SDS011;2976;49.764;9.796;2024-03-02T08:29:31;24.47;;;12.17;;
5900;SDS011;2976;49.764;9.796;2024-03-02T08:31:57;20.30;;;11.37;;
5900;SDS011;2976;49.764;9.796;2024-03-02T08:34:22;19.70;;;11.37;;
5900;SDS011;2976;49.764;9.796;2024-03-02T08:36:50;18.13;;;10.70;;
5900;SDS011;2976;49.764;9.796;2024-03-02T08:39:16;15.57;;;9.37;;
5900;SDS011;2976;49.764;9.796;2024-03-02T08:41:44;19.27;;;11.27;;
5900;SDS011;2976;49.764;9.796;2024-03-02T08:44:10;20.47;;;11.33;;
5900;SDS011;2976;49.764;9.796;2024-03-02T08:46:35;22.70;;;10.70;;
5900;SDS011;2976;49.764;9.796;2024-03-02T08:49:02;15.83;;;9.03;;
5900;SDS011;2976;49.764;9.796;2024-03-02T08:51:28;19.33;;;10.33;;
5900;SDS011;2976;49.764;9.796;2024-03-02T08:53:53;16.30;;;9.30;;
5900;SDS011;2976;49.764;9.796;2024-03-02T08:56:21;17.57;;;9.73;;
5900;SDS011;2976;49.764;9.796;2024-03-02T08:58:48;14.60;;;7.60;;
5900;SDS011;2976;49.764;9.796;2024-03-02T09:01:14;19.23;;;9.77;;
5900;SDS011;2976;49.764;9.796;2024-03-02T09:03:42;20.03;;;10.50;;
5900;SDS011;2976;49.764;9.796;2024-03-02T09:06:11;17.63;;;9.80;;
5900;SDS011;2976;49.764;9.796;2024-03-02T09:08:39;18.80;;;10.57;;
5900;SDS011;2976;49.764;9.796;2024-03-02T09:11:07;16.50;;;8.60;;
5900;SDS011;2976;49.764;9.796;2024-03-02T09:13:33;16.67;;;9.43;;
5900;SDS011;2976;49.764;9.796;2024-03-02T09:15:59;17.67;;;8.97;;
5900;SDS011;2976;49.764;9.796;2024-03-02T09:18:25;22.90;;;8.00;;
5900;SDS011;2976;49.764;9.796;2024-03-02T09:20:50;17.40;;;9.20;;
5900;SDS011;2976;49.764;9.796;2024-03-02T09:23:16;14.40;;;8.40;;
5900;SDS011;2976;49.764;9.796;2024-03-02T09:25:41;19.60;;;10.00;;
5900;SDS011;2976;49.764;9.796;2024-03-02T09:28:07;16.33;;;8.80;;
5900;SDS011;2976;49.764;9.796;2024-03-02T09:30:32;19.83;;;9.17;;
5900;SDS011;2976;49.764;9.796;2024-03-02T09:32:58;15.60;;;9.73;;
5900;SDS011;2976;49.764;9.796;2024-03-02T09:35:24;18.30;;;9.60;;
5900;SDS011;2976;49.764;9.796;2024-03-02T09:37:49;18.60;;;8.80;;
5900;SDS011;2976;49.764;9.796;2024-03-02T09:40:15;16.27;;;7.60;;
5900;SDS011;2976;49.764;9.796;2024-03-02T09:42:44;19.20;;;8.70;;
5900;SDS011;2976;49.764;9.796;2024-03-02T09:45:10;18.97;;;9.13;;
5900;SDS011;2976;49.764;9.796;2024-03-02T09:47:36;12.23;;;8.17;;
5900;SDS011;2976;49.764;9.796;2024-03-02T09:50:02;19.00;;;9.23;;
5900;SDS011;2976;49.764;9.796;2024-03-02T09:52:28;12.57;;;8.33;;
5900;SDS011;2976;49.764;9.796;2024-03-02T09:54:56;16.30;;;8.43;;
5900;SDS011;2976;49.764;9.796;2024-03-02T09:57:21;13.57;;;7.90;;
5900;SDS011;2976;49.764;9.796;2024-03-02T09:59:47;14.13;;;7.67;;
5900;SDS011;2976;49.764;9.796;2024-03-02T10:02:12;11.10;;;6.77;;
5900;SDS011;2976;49.764;9.796;2024-03-02T10:04:38;11.67;;;7.43;;
5900;SDS011;2976;49.764;9.796;2024-03-02T10:07:13;11.43;;;7.17;;
5900;SDS011;2976;49.764;9.796;2024-03-02T10:09:44;10.30;;;6.53;;
5900;SDS011;2976;49.764;9.796;2024-03-02T10:12:13;15.63;;;8.47;;
5900;SDS011;2976;49.764;9.796;2024-03-02T10:14:45;14.37;;;7.77;;
5900;SDS011;2976;49.764;9.796;2024-03-02T10:17:13;12.43;;;7.50;;
5900;SDS011;2976;49.764;9.796;2024-03-02T10:19:40;12.13;;;6.63;;
5900;SDS011;2976;49.764;9.796;2024-03-02T10:22:07;12.53;;;6.77;;
5900;SDS011;2976;49.764;9.796;2024-03-02T10:24:40;9.10;;;6.07;;
5900;SDS011;2976;49.764;9.796;2024-03-02T10:27:10;9.67;;;6.00;;
5900;SDS011;2976;49.764;9.796;2024-03-02T10:29:47;12.37;;;6.77;;
5900;SDS011;2976;49.764;9.796;2024-03-02T10:32:14;11.63;;;6.50;;
5900;SDS011;2976;49.764;9.796;2024-03-02T10:34:41;12.93;;;7.40;;
5900;SDS011;2976;49.764;9.796;2024-03-02T10:37:12;8.50;;;6.33;;
5900;SDS011;2976;49.764;9.796;2024-03-02T10:39:42;10.10;;;6.37;;
5900;SDS011;2976;49.764;9.796;2024-03-02T10:42:08;12.03;;;7.40;;
5900;SDS011;2976;49.764;9.796;2024-03-02T10:44:34;10.10;;;6.67;;
5900;SDS011;2976;49.764;9.796;2024-03-02T10:47:00;13.30;;;6.90;;
5900;SDS011;2976;49.764;9.796;2024-03-02T10:49:29;12.97;;;7.07;;
5900;SDS011;2976;49.764;9.796;2024-03-02T10:51:57;7.40;;;5.63;;
5900;SDS011;2976;49.764;9.796;2024-03-02T10:54:28;8.07;;;5.00;;
5900;SDS011;2976;49.764;9.796;2024-03-02T10:57:00;8.80;;;5.87;;
5900;SDS011;2976;49.764;9.796;2024-03-02T11:01:58;8.07;;;5.30;;
5900;SDS011;2976;49.764;9.796;2024-03-02T11:04:28;9.97;;;6.10;;
5900;SDS011;2976;49.764;9.796;2024-03-02T11:07:13;11.43;;;7.20;;
5900;SDS011;2976;49.764;9.796;2024-03-02T11:09:41;10.60;;;6.60;;
5900;SDS011;2976;49.764;9.796;2024-03-02T11:12:27;10.67;;;6.40;;
5900;SDS011;2976;49.764;9.796;2024-03-02T11:14:54;11.37;;;6.07;;
5900;SDS011;2976;49.764;9.796;2024-03-02T11:17:21;13.50;;;6.67;;
5900;SDS011;2976;49.764;9.796;2024-03-02T11:19:47;9.70;;;5.80;;
5900;SDS011;2976;49.764;9.796;2024-03-02T11:22:14;9.10;;;6.17;;
5900;SDS011;2976;49.764;9.796;2024-03-02T11:24:50;7.80;;;5.77;;
5900;SDS011;2976;49.764;9.796;2024-03-02T11:30:15;9.23;;;5.13;;
5900;SDS011;2976;49.764;9.796;2024-03-02T11:33:02;9.33;;;5.80;;
5900;SDS011;2976;49.764;9.796;2024-03-02T11:38:02;8.17;;;5.40;;
5900;SDS011;2976;49.764;9.796;2024-03-02T11:40:31;4.53;;;4.10;;
5900;SDS011;2976;49.764;9.796;2024-03-02T11:42:57;6.00;;;4.27;;
5900;SDS011;2976;49.764;9.796;2024-03-02T11:45:25;5.90;;;4.23;;
5900;SDS011;2976;49.764;9.796;2024-03-02T11:47:53;5.70;;;3.90;;
5900;SDS011;2976;49.764;9.796;2024-03-02T11:50:29;5.80;;;4.10;;
5900;SDS011;2976;49.764;9.796;2024-03-02T11:52:57;8.20;;;5.10;;
5900;SDS011;2976;49.764;9.796;2024-03-02T11:55:25;10.57;;;5.47;;
5900;SDS011;2976;49.764;9.796;2024-03-02T11:57:52;5.87;;;4.50;;
5900;SDS011;2976;49.764;9.796;2024-03-02T12:00:18;6.87;;;3.77;;
5900;SDS011;2976;49.764;9.796;2024-03-02T12:02:45;10.40;;;6.30;;
5900;SDS011;2976;49.764;9.796;2024-03-02T12:05:16;7.60;;;5.60;;
5900;SDS011;2976;49.764;9.796;2024-03-02T12:07:42;7.43;;;4.83;;
5900;SDS011;2976;49.764;9.796;2024-03-02T12:10:08;7.00;;;4.53;;
5900;SDS011;2976;49.764;9.796;2024-03-02T12:12:34;5.50;;;3.57;;
5900;SDS011;2976;49.764;9.796;2024-03-02T12:14:59;5.97;;;4.27;;
5900;SDS011;2976;49.764;9.796;2024-03-02T12:17:25;4.40;;;4.00;;
5900;SDS011;2976;49.764;9.796;2024-03-02T12:19:54;5.27;;;3.90;;
5900;SDS011;2976;49.764;9.796;2024-03-02T12:22:20;6.77;;;4.47;;
5900;SDS011;2976;49.764;9.796;2024-03-02T12:24:46;6.17;;;3.33;;
5900;SDS011;2976;49.764;9.796;2024-03-02T12:27:15;4.23;;;3.83;;
5900;SDS011;2976;49.764;9.796;2024-03-02T12:29:41;4.27;;;3.53;;
5900;SDS011;2976;49.764;9.796;2024-03-02T12:32:06;3.50;;;2.80;;
5900;SDS011;2976;49.764;9.796;2024-03-02T12:34:33;2.60;;;2.40;;
5900;SDS011;2976;49.764;9.796;2024-03-02T12:36:59;5.00;;;3.70;;
5900;SDS011;2976;49.764;9.796;2024-03-02T12:39:24;4.87;;;3.70;;
5900;SDS011;2976;49.764;9.796;2024-03-02T12:41:50;4.80;;;3.73;;
5900;SDS011;2976;49.764;9.796;2024-03-02T12:44:17;4.67;;;3.20;;
5900;SDS011;2976;49.764;9.796;2024-03-02T12:46:43;4.00;;;3.00;;
5900;SDS011;2976;49.764;9.796;2024-03-02T12:49:10;4.13;;;3.10;;
5900;SDS011;2976;49.764;9.796;2024-03-02T12:51:37;2.67;;;2.27;;
5900;SDS011;2976;49.764;9.796;2024-03-02T12:54:06;3.03;;;2.73;;
5900;SDS011;2976;49.764;9.796;2024-03-02T12:56:36;2.70;;;2.47;;
5900;SDS011;2976;49.764;9.796;2024-03-02T12:59:10;4.90;;;2.80;;
5900;SDS011;2976;49.764;9.796;2024-03-02T13:04:21;6.00;;;3.00;;
5900;SDS011;2976;49.764;9.796;2024-03-02T13:06:47;5.83;;;3.43;;
5900;SDS011;2976;49.764;9.796;2024-03-02T13:09:13;4.30;;;2.50;;
5900;SDS011;2976;49.764;9.796;2024-03-02T13:11:41;3.13;;;2.70;;
5900;SDS011;2976;49.764;9.796;2024-03-02T13:14:07;3.67;;;2.60;;
5900;SDS011;2976;49.764;9.796;2024-03-02T13:16:37;3.50;;;3.20;;
5900;SDS011;2976;49.764;9.796;2024-03-02T13:19:06;2.00;;;1.90;;
5900;SDS011;2976;49.764;9.796;2024-03-02T13:21:38;3.37;;;2.50;;
5900;SDS011;2976;49.764;9.796;2024-03-02T13:24:04;6.47;;;2.60;;
5900;SDS011;2976;49.764;9.796;2024-03-02T13:26:30;3.77;;;1.90;;
5900;SDS011;2976;49.764;9.796;2024-03-02T13:28:57;3.17;;;2.63;;
5900;SDS011;2976;49.764;9.796;2024-03-02T13:31:22;5.60;;;2.27;;
5900;SDS011;2976;49.764;9.796;2024-03-02T13:33:48;2.43;;;1.87;;
5900;SDS011;2976;49.764;9.796;2024-03-02T13:36:13;3.70;;;2.93;;
5900;SDS011;2976;49.764;9.796;2024-03-02T13:38:39;2.73;;;2.30;;
5900;SDS011;2976;49.764;9.796;2024-03-02T13:41:04;1.90;;;1.63;;
5900;SDS011;2976;49.764;9.796;2024-03-02T13:43:30;2.60;;;1.97;;
5900;SDS011;2976;49.764;9.796;2024-03-02T13:45:57;2.87;;;2.10;;
5900;SDS011;2976;49.764;9.796;2024-03-02T13:48:24;2.50;;;1.70;;
5900;SDS011;2976;49.764;9.796;2024-03-02T13:50:51;2.57;;;2.37;;
5900;SDS011;2976;49.764;9.796;2024-03-02T13:53:17;4.80;;;1.83;;
5900;SDS011;2976;49.764;9.796;2024-03-02T13:55:43;2.43;;;2.07;;
5900;SDS011;2976;49.764;9.796;2024-03-02T13:58:09;1.60;;;1.50;;
5900;SDS011;2976;49.764;9.796;2024-03-02T14:00:36;1.40;;;1.30;;
5900;SDS011;2976;49.764;9.796;2024-03-02T14:03:02;1.30;;;1.20;;
5900;SDS011;2976;49.764;9.796;2024-03-02T14:05:28;1.20;;;1.10;;
5900;SDS011;2976;49.764;9.796;2024-03-02T14:07:54;1.43;;;1.33;;
5900;SDS011;2976;49.764;9.796;2024-03-02T14:10:19;1.33;;;1.20;;
5900;SDS011;2976;49.764;9.796;2024-03-02T14:12:50;1.03;;;1.03;;
5900;SDS011;2976;49.764;9.796;2024-03-02T14:15:15;1.10;;;1.10;;
5900;SDS011;2976;49.764;9.796;2024-03-02T14:17:41;1.23;;;1.13;;
5900;SDS011;2976;49.764;9.796;2024-03-02T14:20:09;2.30;;;1.43;;
5900;SDS011;2976;49.764;9.796;2024-03-02T14:22:37;1.70;;;1.50;;
5900;SDS011;2976;49.764;9.796;2024-03-02T14:25:03;1.30;;;1.00;;
5900;SDS011;2976;49.764;9.796;2024-03-02T14:27:29;2.13;;;1.20;;
5900;SDS011;2976;49.764;9.796;2024-03-02T14:29:55;3.27;;;0.97;;
5900;SDS011;2976;49.764;9.796;2024-03-02T14:32:21;1.10;;;1.10;;
5900;SDS011;2976;49.764;9.796;2024-03-02T14:34:46;0.90;;;0.90;;
5900;SDS011;2976;49.764;9.796;2024-03-02T14:37:13;1.83;;;1.73;;
5900;SDS011;2976;49.764;9.796;2024-03-02T14:39:46;2.70;;;1.97;;
5900;SDS011;2976;49.764;9.796;2024-03-02T14:42:14;1.90;;;1.70;;
5900;SDS011;2976;49.764;9.796;2024-03-02T14:44:40;1.67;;;1.57;;
5900;SDS011;2976;49.764;9.796;2024-03-02T14:47:05;2.20;;;1.83;;
5900;SDS011;2976;49.764;9.796;2024-03-02T14:49:32;3.00;;;1.90;;
5900;SDS011;2976;49.764;9.796;2024-03-02T14:52:00;2.50;;;1.70;;
5900;SDS011;2976;49.764;9.796;2024-03-02T14:54:26;1.73;;;1.63;;
5900;SDS011;2976;49.764;9.796;2024-03-02T14:56:52;2.63;;;2.07;;
5900;SDS011;2976;49.764;9.796;2024-03-02T14:59:17;2.67;;;2.47;;
5900;SDS011;2976;49.764;9.796;2024-03-02T15:01:43;3.43;;;1.87;;
5900;SDS011;2976;49.764;9.796;2024-03-02T15:04:09;1.90;;;1.80;;
5900;SDS011;2976;49.764;9.796;2024-03-02T15:06:37;1.83;;;1.73;;
5900;SDS011;2976;49.764;9.796;2024-03-02T15:09:02;2.07;;;1.93;;
5900;SDS011;2976;49.764;9.796;2024-03-02T15:14:09;2.30;;;2.10;;
5900;SDS011;2976;49.764;9.796;2024-03-02T15:16:35;2.40;;;1.33;;